createdAt,value
2019-02-05T00:00:08.154Z,1018.44
2019-02-05T00:01:08.165Z,1018.47
2019-02-05T00:02:08.182Z,1018.46
2019-02-05T00:03:08.185Z,1018.46
2019-02-05T00:04:08.258Z,1018.46
2019-02-05T00:05:08.233Z,1018.45
2019-02-05T00:06:08.222Z,1018.48
2019-02-05T00:07:08.231Z,1018.49
2019-02-05T00:08:08.251Z,1018.51
2019-02-05T00:09:08.258Z,1018.52
2019-02-05T00:10:08.264Z,1018.52
2019-02-05T00:11:08.278Z,1018.52
2019-02-05T00:12:08.291Z,1018.53
2019-02-05T00:13:08.302Z,1018.53
2019-02-05T00:14:08.315Z,1018.61
2019-02-05T00:15:08.328Z,1018.65
2019-02-05T00:16:08.332Z,1018.68
2019-02-05T00:17:08.352Z,1018.67
2019-02-05T00:18:08.378Z,1018.63
2019-02-05T00:19:08.367Z,1018.65
2019-02-05T00:20:08.382Z,1018.71
2019-02-05T00:21:08.399Z,1018.76
2019-02-05T00:22:08.405Z,1018.80
2019-02-05T00:23:08.416Z,1018.82
2019-02-05T00:24:08.428Z,1018.84
2019-02-05T00:25:08.437Z,1018.82
2019-02-05T00:26:08.454Z,1018.76
2019-02-05T00:27:08.491Z,1018.81
2019-02-05T00:28:08.474Z,1018.75
2019-02-05T00:29:08.539Z,1018.74
2019-02-05T00:30:08.501Z,1018.76
2019-02-05T00:31:08.508Z,1018.82
2019-02-05T00:32:08.522Z,1018.76
2019-02-05T00:33:08.532Z,1018.80
2019-02-05T00:34:08.546Z,1018.84
2019-02-05T00:35:08.561Z,1018.81
2019-02-05T00:36:08.565Z,1018.85
2019-02-05T00:37:08.578Z,1018.87
2019-02-05T00:38:08.589Z,1018.83
2019-02-05T00:39:08.599Z,1018.83
2019-02-05T00:40:08.615Z,1018.85
2019-02-05T00:41:08.626Z,1018.80
2019-02-05T00:42:08.662Z,1018.81
2019-02-05T00:43:08.644Z,1018.78
2019-02-05T00:44:08.661Z,1018.80
2019-02-05T00:45:08.672Z,1018.85
2019-02-05T00:46:08.687Z,1018.92
2019-02-05T00:47:08.694Z,1018.93
2019-02-05T00:48:08.709Z,1018.88
2019-02-05T00:49:08.724Z,1018.89
2019-02-05T00:50:08.729Z,1018.91
2019-02-05T00:51:08.737Z,1018.94
2019-02-05T00:52:08.756Z,1018.95
2019-02-05T00:53:08.771Z,1018.88
2019-02-05T00:54:08.780Z,1018.87
2019-02-05T00:55:08.786Z,1018.85
2019-02-05T00:56:17.357Z,1018.84
2019-02-05T00:57:08.810Z,1018.87
2019-02-05T00:58:08.827Z,1018.92
2019-02-05T00:59:08.837Z,1018.94
2019-02-05T01:00:08.844Z,1018.88
2019-02-05T01:01:08.856Z,1018.90
2019-02-05T01:02:08.869Z,1018.95
2019-02-05T01:03:08.878Z,1018.94
2019-02-05T01:04:08.898Z,1018.99
2019-02-05T01:05:08.915Z,1019.00
2019-02-05T01:06:08.926Z,1018.94
2019-02-05T01:07:08.927Z,1018.91
2019-02-05T01:08:08.944Z,1018.89
2019-02-05T01:09:08.947Z,1018.93
2019-02-05T01:10:08.987Z,1018.89
2019-02-05T01:11:08.975Z,1018.88
2019-02-05T01:12:08.984Z,1018.88
2019-02-05T01:13:08.996Z,1018.89
2019-02-05T01:14:09.008Z,1018.87
2019-02-05T01:15:09.026Z,1018.91
2019-02-05T01:16:09.029Z,1018.97
2019-02-05T01:17:09.039Z,1018.97
2019-02-05T01:18:09.052Z,1019.03
2019-02-05T01:19:09.066Z,1019.03
2019-02-05T01:20:09.079Z,1019.00
2019-02-05T01:21:09.089Z,1018.98
2019-02-05T01:22:09.095Z,1018.97
2019-02-05T01:23:09.116Z,1018.94
2019-02-05T01:24:09.129Z,1018.95
2019-02-05T01:25:09.138Z,1018.92
2019-02-05T01:26:09.148Z,1019.00
2019-02-05T01:27:09.186Z,1019.00
2019-02-05T01:28:09.167Z,1019.00
2019-02-05T01:29:09.181Z,1019.01
2019-02-05T01:30:09.197Z,1019.00
2019-02-05T01:31:09.203Z,1019.05
2019-02-05T01:32:09.212Z,1019.01
2019-02-05T01:33:09.259Z,1019.03
2019-02-05T01:34:09.235Z,1019.07
2019-02-05T01:35:09.249Z,1019.13
2019-02-05T01:36:09.256Z,1019.07
2019-02-05T01:37:09.270Z,1019.12
2019-02-05T01:38:09.281Z,1019.05
2019-02-05T01:39:09.300Z,1019.07
2019-02-05T01:40:09.310Z,1019.07
2019-02-05T01:41:09.317Z,1019.09
2019-02-05T01:42:09.329Z,1019.10
2019-02-05T01:43:09.346Z,1019.14
2019-02-05T01:44:09.352Z,1019.16
2019-02-05T01:45:09.435Z,1019.15
2019-02-05T01:46:09.379Z,1019.13
2019-02-05T01:47:09.401Z,1019.13
2019-02-05T01:48:09.397Z,1019.11
2019-02-05T01:49:09.412Z,1019.15
2019-02-05T01:50:09.423Z,1019.15
2019-02-05T01:51:09.438Z,1019.17
2019-02-05T01:52:09.444Z,1019.15
2019-02-05T01:53:09.451Z,1019.18
2019-02-05T01:54:09.467Z,1019.21
2019-02-05T01:55:09.479Z,1019.24
2019-02-05T01:56:09.496Z,1019.17
2019-02-05T01:57:09.501Z,1019.23
2019-02-05T01:58:09.509Z,1019.16
2019-02-05T01:59:09.521Z,1019.15
2019-02-05T02:00:09.537Z,1019.17
2019-02-05T02:01:09.555Z,1019.17
2019-02-05T02:02:09.559Z,1019.19
2019-02-05T02:03:09.594Z,1019.16
2019-02-05T02:04:09.645Z,1019.17
2019-02-05T02:05:09.593Z,1019.17
2019-02-05T02:06:09.606Z,1019.13
2019-02-05T02:07:09.622Z,1019.16
2019-02-05T02:08:09.629Z,1019.17
2019-02-05T02:09:09.638Z,1019.15
2019-02-05T02:10:09.649Z,1019.13
2019-02-05T02:11:09.678Z,1019.14
2019-02-05T02:12:09.681Z,1019.11
2019-02-05T02:13:09.690Z,1019.08
2019-02-05T02:14:09.719Z,1019.10
2019-02-05T02:15:09.705Z,1019.10
2019-02-05T02:16:09.731Z,1019.12
2019-02-05T02:17:09.731Z,1019.12
2019-02-05T02:18:09.751Z,1019.10
2019-02-05T02:19:09.756Z,1019.10
2019-02-05T02:20:09.763Z,1019.08
2019-02-05T02:21:09.772Z,1019.10
2019-02-05T02:22:09.791Z,1019.03
2019-02-05T02:23:09.803Z,1019.07
2019-02-05T02:24:09.808Z,1019.06
2019-02-05T02:25:09.907Z,1019.09
2019-02-05T02:26:09.833Z,1019.07
2019-02-05T02:27:09.862Z,1019.14
2019-02-05T02:28:09.858Z,1019.10
2019-02-05T02:29:09.865Z,1019.17
2019-02-05T02:30:09.957Z,1019.14
2019-02-05T02:31:09.912Z,1019.17
2019-02-05T02:32:09.903Z,1019.18
2019-02-05T02:33:09.964Z,1019.12
2019-02-05T02:34:09.936Z,1019.15
2019-02-05T02:35:09.953Z,1019.14
2019-02-05T02:36:09.945Z,1019.13
2019-02-05T02:37:09.958Z,1019.11
2019-02-05T02:38:09.987Z,1019.14
2019-02-05T02:39:09.979Z,1019.08
2019-02-05T02:40:09.992Z,1019.08
2019-02-05T02:41:10.007Z,1019.07
2019-02-05T02:42:10.030Z,1019.06
2019-02-05T02:43:10.031Z,1019.05
2019-02-05T02:44:10.037Z,1019.03
2019-02-05T02:45:10.049Z,1019.06
2019-02-05T02:46:10.064Z,1019.08
2019-02-05T02:47:10.075Z,1019.08
2019-02-05T02:48:10.118Z,1019.05
2019-02-05T02:49:10.098Z,1019.03
2019-02-05T02:50:10.111Z,1019.07
2019-02-05T02:51:10.120Z,1019.03
2019-02-05T02:52:10.161Z,1019.08
2019-02-05T02:53:10.151Z,1019.10
2019-02-05T02:54:10.166Z,1019.13
2019-02-05T02:55:10.166Z,1019.10
2019-02-05T02:56:10.206Z,1019.15
2019-02-05T02:57:10.190Z,1019.12
2019-02-05T02:58:13.492Z,1019.15
2019-02-05T02:59:10.352Z,1019.13
2019-02-05T03:00:10.230Z,1019.08
2019-02-05T03:01:10.244Z,1019.16
2019-02-05T03:02:10.262Z,1019.07
2019-02-05T03:03:10.267Z,1019.11
2019-02-05T03:04:10.272Z,1019.04
2019-02-05T03:05:10.297Z,1019.02
2019-02-05T03:06:10.293Z,1019.07
2019-02-05T03:07:10.302Z,1019.09
2019-02-05T03:08:10.315Z,1019.11
2019-02-05T03:37:53.606Z,1019.11
2019-02-05T03:38:53.585Z,1019.07
2019-02-05T03:40:45.496Z,1019.07
2019-02-05T03:41:45.479Z,1019.07
2019-02-05T03:43:37.403Z,1019.11
2019-02-05T03:44:37.415Z,1019.14
2019-02-05T03:46:29.327Z,1019.21
2019-02-05T03:47:29.305Z,1019.21
2019-02-05T03:49:21.242Z,1019.20
2019-02-05T03:50:21.210Z,1019.21
2019-02-05T03:52:13.116Z,1019.21
2019-02-05T03:53:13.116Z,1019.23
2019-02-05T03:55:05.034Z,1019.34
2019-02-05T03:56:05.019Z,1019.32
2019-02-05T03:57:56.935Z,1019.32
2019-02-05T03:58:56.936Z,1019.29
2019-02-05T04:00:48.866Z,1019.29
2019-02-05T04:01:48.897Z,1019.27
2019-02-05T04:03:40.755Z,1019.24
2019-02-05T04:04:40.765Z,1019.21
2019-02-05T04:06:32.669Z,1019.18
2019-02-05T04:07:32.663Z,1019.16
2019-02-05T04:09:24.602Z,1019.19
2019-02-05T04:10:24.575Z,1019.20
2019-02-05T04:12:16.562Z,1019.22
2019-02-05T04:13:16.482Z,1019.22
2019-02-05T04:15:08.408Z,1019.21
2019-02-05T04:16:08.414Z,1019.17
2019-02-05T04:18:00.826Z,1019.17
2019-02-05T04:19:00.860Z,1019.17
2019-02-05T04:20:52.728Z,1019.19
2019-02-05T04:21:52.714Z,1019.23
2019-02-05T04:23:44.628Z,1019.26
2019-02-05T04:24:44.625Z,1019.23
2019-02-05T04:26:36.550Z,1019.30
2019-02-05T04:27:45.138Z,1019.30
2019-02-05T04:29:28.440Z,1019.30
2019-02-05T04:30:28.456Z,1019.34
2019-02-05T04:32:20.372Z,1019.38
2019-02-05T04:33:20.350Z,1019.41
2019-02-05T04:35:12.255Z,1019.42
2019-02-05T04:36:12.261Z,1019.36
2019-02-05T04:38:04.187Z,1019.34
2019-02-05T04:39:04.174Z,1019.35
2019-02-05T04:40:56.095Z,1019.46
2019-02-05T04:41:56.157Z,1019.51
2019-02-05T04:43:48.539Z,1019.54
2019-02-05T04:44:48.520Z,1019.60
2019-02-05T04:46:40.447Z,1019.63
2019-02-05T04:47:40.421Z,1019.62
2019-02-05T04:49:32.347Z,1019.62
2019-02-05T04:50:32.338Z,1019.58
2019-02-05T04:52:24.273Z,1019.60
2019-02-05T04:53:24.254Z,1019.64
2019-02-05T04:55:16.170Z,1019.61
2019-02-05T04:56:16.174Z,1019.64
2019-02-05T04:58:08.102Z,1019.70
2019-02-05T04:59:08.085Z,1019.63
2019-02-05T05:00:59.995Z,1019.65
2019-02-05T05:01:59.996Z,1019.75
2019-02-05T05:03:51.919Z,1019.74
2019-02-05T05:04:51.914Z,1019.72
2019-02-05T05:06:43.812Z,1019.73
2019-02-05T05:07:43.819Z,1019.71
2019-02-05T05:09:35.745Z,1019.71
2019-02-05T05:10:35.726Z,1019.71
2019-02-05T05:12:27.691Z,1019.74
2019-02-05T05:13:27.668Z,1019.75
2019-02-05T05:15:19.577Z,1019.70
2019-02-05T05:16:19.585Z,1019.78
2019-02-05T05:18:11.513Z,1019.76
2019-02-05T05:19:11.494Z,1019.68
2019-02-05T05:20:11.498Z,1019.68
2019-02-05T05:21:11.514Z,1019.68
2019-02-05T05:22:11.530Z,1019.65
2019-02-05T05:23:11.537Z,1019.67
2019-02-05T05:24:11.559Z,1019.72
2019-02-05T05:25:11.565Z,1019.69
2019-02-05T05:26:11.581Z,1019.72
2019-02-05T05:27:11.584Z,1019.72
2019-02-05T05:28:11.601Z,1019.69
2019-02-05T05:29:11.621Z,1019.75
2019-02-05T05:30:11.617Z,1019.69
2019-02-05T05:31:11.624Z,1019.75
2019-02-05T05:32:11.646Z,1019.72
2019-02-05T05:33:11.686Z,1019.73
2019-02-05T05:34:11.662Z,1019.69
2019-02-05T05:35:11.675Z,1019.70
2019-02-05T05:36:11.684Z,1019.74
2019-02-05T05:37:11.696Z,1019.78
2019-02-05T05:38:11.716Z,1019.72
2019-02-05T05:39:11.721Z,1019.75
2019-02-05T05:40:11.733Z,1019.77
2019-02-05T05:41:11.778Z,1019.72
2019-02-05T05:42:11.761Z,1019.77
2019-02-05T05:43:11.768Z,1019.79
2019-02-05T05:44:11.787Z,1019.78
2019-02-05T05:45:11.789Z,1019.83
2019-02-05T05:46:11.806Z,1019.79
2019-02-05T05:47:11.813Z,1019.85
2019-02-05T05:48:11.848Z,1019.87
2019-02-05T05:49:11.843Z,1019.88
2019-02-05T05:50:11.852Z,1019.86
2019-02-05T05:51:11.929Z,1019.93
2019-02-05T05:52:11.871Z,1019.91
2019-02-05T05:53:11.889Z,1019.94
2019-02-05T05:54:11.913Z,1019.92
2019-02-05T05:55:11.911Z,1019.90
2019-02-05T05:56:11.917Z,1019.93
2019-02-05T05:57:11.932Z,1019.92
2019-02-05T05:58:22.396Z,1019.95
2019-02-05T05:59:12.030Z,1019.97
2019-02-05T06:00:11.978Z,1019.97
2019-02-05T06:01:11.983Z,1019.94
2019-02-05T06:02:11.990Z,1019.96
2019-02-05T06:03:11.998Z,1019.95
2019-02-05T06:04:12.015Z,1019.91
2019-02-05T06:05:12.027Z,1019.95
2019-02-05T06:06:12.034Z,1019.94
2019-02-05T06:07:12.049Z,1019.88
2019-02-05T06:08:12.060Z,1019.92
2019-02-05T06:09:12.071Z,1019.92
2019-02-05T06:10:12.084Z,1019.92
2019-02-05T06:11:12.091Z,1019.92
2019-02-05T06:12:12.105Z,1019.93
2019-02-05T06:13:12.116Z,1019.94
2019-02-05T06:14:12.128Z,1019.96
2019-02-05T06:15:12.140Z,1019.94
2019-02-05T06:16:12.155Z,1019.95
2019-02-05T06:17:12.165Z,1019.99
2019-02-05T06:18:12.176Z,1020.07
2019-02-05T06:19:12.190Z,1020.05
2019-02-05T06:20:12.202Z,1020.07
2019-02-05T06:21:13.743Z,1020.05
2019-02-05T06:22:12.222Z,1020.10
2019-02-05T06:23:12.254Z,1020.12
2019-02-05T06:24:12.249Z,1020.09
2019-02-05T06:25:12.257Z,1020.08
2019-02-05T06:26:12.268Z,1020.05
2019-02-05T06:27:12.282Z,1020.03
2019-02-05T06:28:12.292Z,1020.03
2019-02-05T06:29:12.305Z,1020.11
2019-02-05T06:30:12.315Z,1020.06
2019-02-05T06:31:12.323Z,1020.03
2019-02-05T06:32:12.341Z,1020.05
2019-02-05T06:33:12.353Z,1020.05
2019-02-05T06:34:12.369Z,1020.09
2019-02-05T06:35:12.374Z,1020.10
2019-02-05T06:36:12.385Z,1020.09
2019-02-05T06:37:12.403Z,1020.07
2019-02-05T06:38:12.406Z,1020.10
2019-02-05T06:39:12.442Z,1020.11
2019-02-05T06:40:12.436Z,1020.14
2019-02-05T06:41:12.444Z,1020.13
2019-02-05T06:42:12.460Z,1020.21
2019-02-05T06:43:12.465Z,1020.22
2019-02-05T06:44:12.473Z,1020.22
2019-02-05T06:45:12.492Z,1020.23
2019-02-05T06:46:12.514Z,1020.21
2019-02-05T06:47:12.518Z,1020.24
2019-02-05T06:48:12.532Z,1020.22
2019-02-05T06:49:12.542Z,1020.26
2019-02-05T06:50:12.550Z,1020.19
2019-02-05T06:51:12.565Z,1020.29
2019-02-05T06:52:12.571Z,1020.32
2019-02-05T06:53:12.591Z,1020.31
2019-02-05T06:54:12.601Z,1020.34
2019-02-05T06:55:12.607Z,1020.36
2019-02-05T06:56:12.622Z,1020.33
2019-02-05T06:57:12.632Z,1020.36
2019-02-05T06:58:12.643Z,1020.31
2019-02-05T06:59:12.659Z,1020.26
2019-02-05T07:00:12.664Z,1020.26
2019-02-05T07:01:12.677Z,1020.29
2019-02-05T07:02:12.691Z,1020.27
2019-02-05T07:03:12.709Z,1020.34
2019-02-05T07:04:12.717Z,1020.35
2019-02-05T07:05:12.727Z,1020.37
2019-02-05T07:06:12.744Z,1020.38
2019-02-05T07:07:12.836Z,1020.39
2019-02-05T07:08:12.769Z,1020.40
2019-02-05T07:09:12.773Z,1020.37
2019-02-05T07:10:12.782Z,1020.40
2019-02-05T07:11:12.796Z,1020.44
2019-02-05T07:12:12.809Z,1020.43
2019-02-05T07:13:12.836Z,1020.49
2019-02-05T07:14:12.833Z,1020.49
2019-02-05T07:15:12.841Z,1020.52
2019-02-05T07:16:12.859Z,1020.55
2019-02-05T07:17:12.875Z,1020.52
2019-02-05T07:18:12.882Z,1020.54
2019-02-05T07:19:12.891Z,1020.50
2019-02-05T07:20:12.943Z,1020.48
2019-02-05T07:21:12.959Z,1020.49
2019-02-05T07:22:12.934Z,1020.49
2019-02-05T07:23:12.941Z,1020.51
2019-02-05T07:24:12.968Z,1020.52
2019-02-05T07:25:12.983Z,1020.50
2019-02-05T07:26:12.983Z,1020.48
2019-02-05T07:27:12.996Z,1020.49
2019-02-05T07:28:13.003Z,1020.53
2019-02-05T07:29:13.006Z,1020.55
2019-02-05T07:30:13.017Z,1020.58
2019-02-05T07:31:13.030Z,1020.58
2019-02-05T07:32:13.041Z,1020.63
2019-02-05T07:33:13.078Z,1020.59
2019-02-05T07:34:13.065Z,1020.63
2019-02-05T07:35:13.077Z,1020.62
2019-02-05T07:36:13.138Z,1020.64
2019-02-05T07:37:13.116Z,1020.67
2019-02-05T07:38:13.119Z,1020.70
2019-02-05T07:39:13.127Z,1020.73
2019-02-05T07:40:13.163Z,1020.70
2019-02-05T07:41:13.179Z,1020.71
2019-02-05T07:42:13.160Z,1020.71
2019-02-05T07:43:13.166Z,1020.73
2019-02-05T07:44:13.185Z,1020.73
2019-02-05T07:45:13.198Z,1020.79
2019-02-05T07:46:13.201Z,1020.79
2019-02-05T07:47:13.222Z,1020.79
2019-02-05T07:48:13.232Z,1020.81
2019-02-05T07:49:13.311Z,1020.82
2019-02-05T07:50:15.499Z,1020.84
2019-02-05T07:51:13.329Z,1020.80
2019-02-05T07:52:13.377Z,1020.80
2019-02-05T07:53:13.294Z,1020.79
2019-02-05T07:54:13.320Z,1020.77
2019-02-05T07:55:13.341Z,1020.77
2019-02-05T07:56:13.365Z,1020.87
2019-02-05T07:57:13.343Z,1020.79
2019-02-05T07:58:13.342Z,1020.88
2019-02-05T07:59:13.355Z,1020.91
2019-02-05T08:00:13.369Z,1020.91
2019-02-05T08:01:13.381Z,1020.98
2019-02-05T08:02:13.390Z,1020.91
2019-02-05T08:03:15.440Z,1020.95
2019-02-05T08:04:13.417Z,1020.97
2019-02-05T08:05:13.426Z,1021.00
2019-02-05T08:06:13.437Z,1020.99
2019-02-05T08:07:13.447Z,1020.98
2019-02-05T08:08:13.460Z,1021.00
2019-02-05T08:09:13.586Z,1021.01
2019-02-05T08:10:13.484Z,1021.01
2019-02-05T08:11:13.493Z,1021.04
2019-02-05T08:12:13.514Z,1021.01
2019-02-05T08:13:13.521Z,1021.02
2019-02-05T08:14:13.546Z,1021.05
2019-02-05T08:15:13.543Z,1021.03
2019-02-05T08:16:13.554Z,1021.03
2019-02-05T08:17:13.568Z,1021.06
2019-02-05T08:18:13.582Z,1021.06
2019-02-05T08:19:13.598Z,1021.08
2019-02-05T08:20:13.666Z,1021.07
2019-02-05T08:21:17.746Z,1021.06
2019-02-05T08:22:13.639Z,1021.06
2019-02-05T08:23:13.642Z,1021.02
2019-02-05T08:24:13.659Z,1021.00
2019-02-05T08:25:13.668Z,1020.97
2019-02-05T08:26:13.687Z,1021.00
2019-02-05T08:27:13.693Z,1021.00
2019-02-05T08:28:13.704Z,1021.02
2019-02-05T08:29:21.424Z,1020.99
2019-02-05T08:30:13.740Z,1020.99
2019-02-05T08:31:13.743Z,1020.98
2019-02-05T08:32:13.752Z,1020.96
2019-02-05T08:33:13.774Z,1021.01
2019-02-05T08:34:13.773Z,1020.98
2019-02-05T08:35:13.826Z,1021.09
2019-02-05T08:36:13.799Z,1021.06
2019-02-05T08:37:13.830Z,1021.08
2019-02-05T08:38:13.824Z,1021.07
2019-02-05T08:39:13.840Z,1021.11
2019-02-05T08:40:13.840Z,1021.12
2019-02-05T08:41:13.859Z,1021.10
2019-02-05T08:42:13.869Z,1021.15
2019-02-05T08:43:13.897Z,1021.16
2019-02-05T08:44:13.923Z,1021.14
2019-02-05T08:45:14.377Z,1021.16
2019-02-05T08:46:13.927Z,1021.15
2019-02-05T08:47:13.926Z,1021.11
2019-02-05T08:48:13.937Z,1021.16
2019-02-05T08:49:13.952Z,1021.17
2019-02-05T08:50:13.966Z,1021.21
2019-02-05T08:51:13.978Z,1021.26
2019-02-05T08:52:13.985Z,1021.25
2019-02-05T08:53:13.999Z,1021.28
2019-02-05T08:54:14.012Z,1021.26
2019-02-05T08:55:14.026Z,1021.30
2019-02-05T08:56:14.035Z,1021.27
2019-02-05T08:57:14.048Z,1021.29
2019-02-05T08:58:14.056Z,1021.31
2019-02-05T08:59:14.081Z,1021.30
2019-02-05T09:00:14.087Z,1021.32
2019-02-05T09:01:14.588Z,1021.28
2019-02-05T09:02:14.124Z,1021.27
2019-02-05T09:03:14.121Z,1021.28
2019-02-05T09:04:14.131Z,1021.26
2019-02-05T09:05:14.156Z,1021.31
2019-02-05T09:06:14.172Z,1021.27
2019-02-05T09:07:14.168Z,1021.31
2019-02-05T09:08:14.181Z,1021.37
2019-02-05T09:09:14.193Z,1021.35
2019-02-05T09:10:14.220Z,1021.39
2019-02-05T09:11:14.236Z,1021.38
2019-02-05T09:12:14.255Z,1021.39
2019-02-05T09:13:14.255Z,1021.40
2019-02-05T09:14:14.263Z,1021.41
2019-02-05T09:15:14.268Z,1021.41
2019-02-05T09:16:14.283Z,1021.41
2019-02-05T09:17:14.294Z,1021.47
2019-02-05T09:18:14.323Z,1021.49
2019-02-05T09:19:14.314Z,1021.48
2019-02-05T09:20:14.367Z,1021.52
2019-02-05T09:21:14.346Z,1021.44
2019-02-05T09:22:14.372Z,1021.47
2019-02-05T09:23:14.547Z,1021.49
2019-02-05T09:24:14.382Z,1021.50
2019-02-05T09:25:14.437Z,1021.46
2019-02-05T09:26:14.410Z,1021.50
2019-02-05T09:27:14.417Z,1021.53
2019-02-05T09:28:14.423Z,1021.51
2019-02-05T09:29:14.449Z,1021.49
2019-02-05T09:30:14.458Z,1021.51
2019-02-05T09:31:14.475Z,1021.46
2019-02-05T09:32:14.473Z,1021.50
2019-02-05T09:33:14.496Z,1021.53
2019-02-05T09:34:14.511Z,1021.53
2019-02-05T09:35:14.522Z,1021.54
2019-02-05T09:36:14.540Z,1021.52
2019-02-05T09:37:14.559Z,1021.51
2019-02-05T09:38:14.562Z,1021.55
2019-02-05T09:39:14.570Z,1021.63
2019-02-05T09:40:14.584Z,1021.59
2019-02-05T09:41:14.644Z,1021.59
2019-02-05T09:42:14.607Z,1021.59
2019-02-05T09:43:14.626Z,1021.63
2019-02-05T09:44:14.632Z,1021.62
2019-02-05T09:45:14.662Z,1021.64
2019-02-05T09:46:14.660Z,1021.66
2019-02-05T09:47:14.683Z,1021.70
2019-02-05T09:48:14.690Z,1021.71
2019-02-05T09:49:14.699Z,1021.71
2019-02-05T09:50:14.711Z,1021.69
2019-02-05T09:51:14.737Z,1021.71
2019-02-05T09:52:14.763Z,1021.68
2019-02-05T09:53:14.755Z,1021.73
2019-02-05T09:54:14.780Z,1021.72
2019-02-05T09:55:14.764Z,1021.70
2019-02-05T09:56:14.781Z,1021.74
2019-02-05T09:57:14.808Z,1021.74
2019-02-05T09:58:14.809Z,1021.76
2019-02-05T09:59:14.816Z,1021.80
2019-02-05T10:00:14.836Z,1021.84
2019-02-05T10:01:14.846Z,1021.88
2019-02-05T10:02:14.862Z,1021.86
2019-02-05T10:03:14.878Z,1021.94
2019-02-05T10:04:14.885Z,1021.91
2019-02-05T10:05:14.892Z,1021.96
2019-02-05T10:06:14.907Z,1021.94
2019-02-05T10:07:14.921Z,1021.87
2019-02-05T10:08:14.942Z,1021.95
2019-02-05T10:09:14.953Z,1021.97
2019-02-05T10:10:14.962Z,1021.95
2019-02-05T10:11:14.970Z,1021.93
2019-02-05T10:12:15.001Z,1021.94
2019-02-05T10:13:15.020Z,1021.97
2019-02-05T10:14:15.015Z,1021.96
2019-02-05T10:15:15.025Z,1021.94
2019-02-05T10:16:15.047Z,1022.00
2019-02-05T10:17:15.055Z,1022.02
2019-02-05T10:18:15.065Z,1022.06
2019-02-05T10:19:15.079Z,1022.05
2019-02-05T10:20:15.093Z,1022.07
2019-02-05T10:21:15.107Z,1022.10
2019-02-05T10:22:15.110Z,1022.07
2019-02-05T10:23:15.131Z,1022.06
2019-02-05T10:24:15.140Z,1022.12
2019-02-05T10:25:15.158Z,1022.14
2019-02-05T10:26:15.167Z,1022.07
2019-02-05T10:27:15.178Z,1022.08
2019-02-05T10:28:15.205Z,1022.08
2019-02-05T10:29:15.207Z,1022.07
2019-02-05T10:30:15.251Z,1022.09
2019-02-05T10:31:15.243Z,1022.05
2019-02-05T10:32:15.248Z,1022.02
2019-02-05T10:33:15.260Z,1022.05
2019-02-05T10:34:15.326Z,1022.06
2019-02-05T10:35:15.274Z,1022.02
2019-02-05T10:36:15.295Z,1022.09
2019-02-05T10:37:15.308Z,1022.07
2019-02-05T10:38:15.334Z,1022.07
2019-02-05T10:39:15.350Z,1022.13
2019-02-05T10:40:15.349Z,1022.12
2019-02-05T10:41:15.355Z,1022.17
2019-02-05T10:42:15.370Z,1022.11
2019-02-05T10:43:15.379Z,1022.17
2019-02-05T10:44:15.394Z,1022.14
2019-02-05T10:45:15.408Z,1022.10
2019-02-05T10:46:15.426Z,1022.08
2019-02-05T10:47:15.451Z,1022.08
2019-02-05T10:48:15.467Z,1022.06
2019-02-05T10:49:15.463Z,1022.02
2019-02-05T10:50:15.491Z,1021.99
2019-02-05T10:51:15.493Z,1021.99
2019-02-05T10:52:15.514Z,1022.03
2019-02-05T10:53:15.515Z,1021.99
2019-02-05T10:54:15.536Z,1022.06
2019-02-05T10:55:15.539Z,1022.08
2019-02-05T10:56:15.552Z,1022.05
2019-02-05T10:57:15.568Z,1022.01
2019-02-05T10:58:15.590Z,1022.06
2019-02-05T10:59:15.630Z,1022.06
2019-02-05T11:00:15.611Z,1022.09
2019-02-05T11:01:15.620Z,1022.07
2019-02-05T11:02:15.634Z,1022.09
2019-02-05T11:03:15.655Z,1022.02
2019-02-05T11:04:15.660Z,1022.06
2019-02-05T11:05:15.677Z,1022.06
2019-02-05T11:06:15.760Z,1022.03
2019-02-05T11:07:15.693Z,1022.03
2019-02-05T11:08:15.721Z,1022.04
2019-02-05T11:09:15.777Z,1022.06
2019-02-05T11:10:15.759Z,1022.00
2019-02-05T11:11:15.764Z,1022.06
2019-02-05T11:12:15.764Z,1022.04
2019-02-05T11:13:18.749Z,1022.03
2019-02-05T11:14:15.912Z,1022.06
2019-02-05T11:15:15.812Z,1021.97
2019-02-05T11:16:15.828Z,1022.00
2019-02-05T11:17:15.834Z,1021.98
2019-02-05T11:18:15.869Z,1022.00
2019-02-05T11:19:15.859Z,1022.00
2019-02-05T11:20:15.871Z,1022.01
2019-02-05T11:21:15.891Z,1021.97
2019-02-05T11:22:15.899Z,1021.93
2019-02-05T11:23:15.940Z,1021.96
2019-02-05T11:24:15.927Z,1021.97
2019-02-05T11:25:15.936Z,1021.97
2019-02-05T11:26:15.994Z,1021.93
2019-02-05T11:27:16.090Z,1021.97
2019-02-05T11:28:15.980Z,1021.94
2019-02-05T11:29:16.001Z,1021.98
2019-02-05T11:30:20.321Z,1021.94
2019-02-05T11:31:16.021Z,1021.96
2019-02-05T11:32:16.108Z,1021.96
2019-02-05T11:33:16.056Z,1022.02
2019-02-05T11:34:16.114Z,1021.97
2019-02-05T11:35:16.090Z,1022.00
2019-02-05T11:36:16.199Z,1021.99
2019-02-05T11:37:16.101Z,1022.00
2019-02-05T11:38:16.336Z,1021.96
2019-02-05T11:39:16.139Z,1021.93
2019-02-05T11:40:16.157Z,1021.93
2019-02-05T11:41:16.159Z,1021.98
2019-02-05T11:42:16.174Z,1021.96
2019-02-05T11:43:17.506Z,1021.93
2019-02-05T11:44:16.197Z,1021.92
2019-02-05T11:45:16.205Z,1021.91
2019-02-05T11:46:16.217Z,1021.94
2019-02-05T11:47:16.230Z,1021.95
2019-02-05T11:48:16.244Z,1021.89
2019-02-05T11:49:16.271Z,1021.95
2019-02-05T11:50:16.272Z,1021.90
2019-02-05T11:51:16.291Z,1021.94
2019-02-05T11:52:16.294Z,1021.94
2019-02-05T11:53:16.387Z,1021.92
2019-02-05T11:54:17.137Z,1021.97
2019-02-05T11:55:16.495Z,1021.99
2019-02-05T11:56:16.369Z,1022.05
2019-02-05T11:57:16.425Z,1022.01
2019-02-05T11:58:16.377Z,1022.05
2019-02-05T11:59:16.394Z,1022.01
2019-02-05T12:00:16.406Z,1022.00
2019-02-05T12:01:16.420Z,1022.00
2019-02-05T12:02:16.431Z,1022.00
2019-02-05T12:03:16.448Z,1022.04
2019-02-05T12:04:16.462Z,1022.01
2019-02-05T12:05:16.473Z,1021.97
2019-02-05T12:06:16.484Z,1022.00
2019-02-05T12:07:16.513Z,1022.04
2019-02-05T12:08:18.685Z,1022.00
2019-02-05T12:09:16.542Z,1022.00
2019-02-05T12:10:16.544Z,1021.99
2019-02-05T12:11:16.558Z,1021.96
2019-02-05T12:12:16.576Z,1021.94
2019-02-05T12:13:16.587Z,1021.98
2019-02-05T12:14:16.618Z,1021.92
2019-02-05T12:15:16.613Z,1021.97
2019-02-05T12:16:16.623Z,1021.95
2019-02-05T12:17:16.629Z,1021.94
2019-02-05T12:18:16.649Z,1021.99
2019-02-05T12:19:17.651Z,1022.01
2019-02-05T12:20:16.677Z,1021.96
2019-02-05T12:21:16.684Z,1021.96
2019-02-05T12:22:16.758Z,1021.97
2019-02-05T12:23:16.725Z,1021.96
2019-02-05T12:24:16.730Z,1021.95
2019-02-05T12:25:16.735Z,1021.97
2019-02-05T12:26:16.749Z,1021.93
2019-02-05T12:27:16.792Z,1021.95
2019-02-05T12:28:16.782Z,1021.94
2019-02-05T12:29:16.875Z,1021.94
2019-02-05T12:30:16.809Z,1021.97
2019-02-05T12:31:16.816Z,1021.91
2019-02-05T12:32:16.833Z,1021.88
2019-02-05T12:33:16.901Z,1021.88
2019-02-05T12:34:16.869Z,1021.90
2019-02-05T12:35:16.944Z,1021.93
2019-02-05T12:36:16.889Z,1021.96
2019-02-05T12:37:16.904Z,1021.87
2019-02-05T12:38:16.927Z,1021.86
2019-02-05T12:39:16.944Z,1021.86
2019-02-05T12:40:16.943Z,1021.87
2019-02-05T12:41:16.980Z,1021.83
2019-02-05T12:42:16.987Z,1021.83
2019-02-05T12:43:16.979Z,1021.83
2019-02-05T12:44:17.045Z,1021.83
2019-02-05T12:45:17.006Z,1021.81
2019-02-05T12:46:17.021Z,1021.80
2019-02-05T12:47:17.036Z,1021.76
2019-02-05T12:48:17.069Z,1021.78
2019-02-05T12:49:17.077Z,1021.71
2019-02-05T12:50:17.076Z,1021.76
2019-02-05T12:51:17.097Z,1021.79
2019-02-05T12:52:17.108Z,1021.79
2019-02-05T12:53:17.119Z,1021.82
2019-02-05T12:54:17.206Z,1021.79
2019-02-05T12:55:17.183Z,1021.77
2019-02-05T12:56:17.147Z,1021.81
2019-02-05T12:57:17.162Z,1021.81
2019-02-05T12:58:17.180Z,1021.79
2019-02-05T12:59:17.219Z,1021.78
2019-02-05T13:00:17.235Z,1021.75
2019-02-05T13:01:17.323Z,1021.78
2019-02-05T13:02:17.263Z,1021.75
2019-02-05T13:03:17.244Z,1021.78
2019-02-05T13:04:17.257Z,1021.69